Gouda, Netherlands
Current Conditions -  °F | °C
As of 5:25 PM on Friday 31 Oct 2014 (Local Time) from EHRD Reporting Station
Clear Clear  
Wind Chill: 63°   Ceiling: Unl
Heat Index: 63°   Visibility: 6mi
Dew Point: 55°   Wind: 6mph
Humidity: 77%   Direction: 140°SE
Pressure: 30.09"   Gusts: NA
Location:  52.02°N, 4.71°E
Report Text: EHRD 311625Z AUTO 14005KT 9999 NSC 17/13 Q1019 NOSIG
Loading
Personal Weather Stations






























Interactive Weather Map
Tropical Storm Tracking
New forecast layout! Learn more

10-Day Weather Forecast

Advertisements
Track Severe Weather on mobile